sensor_id;sensor_type;location;lat;lon;timestamp;P1;durP1;ratioP1;P2;durP2;ratioP2
40717;SDS011;26405;51.850;-2.246;2023-12-20T00:03:27;18.83;;;3.83;;
40717;SDS011;26405;51.850;-2.246;2023-12-20T00:05:52;16.92;;;3.35;;
40717;SDS011;26405;51.850;-2.246;2023-12-20T00:08:17;14.48;;;3.50;;
40717;SDS011;26405;51.850;-2.246;2023-12-20T00:10:43;13.32;;;3.42;;
40717;SDS011;26405;51.850;-2.246;2023-12-20T00:13:08;15.35;;;3.38;;
40717;SDS011;26405;51.850;-2.246;2023-12-20T00:15:34;14.05;;;3.30;;
40717;SDS011;26405;51.850;-2.246;2023-12-20T00:17:59;14.43;;;2.92;;
40717;SDS011;26405;51.850;-2.246;2023-12-20T00:20:25;16.02;;;3.40;;
40717;SDS011;26405;51.850;-2.246;2023-12-20T00:22:51;14.85;;;3.50;;
40717;SDS011;26405;51.850;-2.246;2023-12-20T00:25:16;13.63;;;3.20;;
40717;SDS011;26405;51.850;-2.246;2023-12-20T00:27:41;14.63;;;2.88;;
40717;SDS011;26405;51.850;-2.246;2023-12-20T00:30:07;20.02;;;3.50;;
40717;SDS011;26405;51.850;-2.246;2023-12-20T00:32:32;20.92;;;3.60;;
40717;SDS011;26405;51.850;-2.246;2023-12-20T00:34:58;15.13;;;2.97;;
40717;SDS011;26405;51.850;-2.246;2023-12-20T00:37:23;13.75;;;3.28;;
40717;SDS011;26405;51.850;-2.246;2023-12-20T00:39:49;16.17;;;3.30;;
40717;SDS011;26405;51.850;-2.246;2023-12-20T00:42:14;13.77;;;3.00;;
40717;SDS011;26405;51.850;-2.246;2023-12-20T00:44:39;11.52;;;3.00;;
40717;SDS011;26405;51.850;-2.246;2023-12-20T00:47:05;13.20;;;3.15;;
40717;SDS011;26405;51.850;-2.246;2023-12-20T00:49:30;15.63;;;3.40;;
40717;SDS011;26405;51.850;-2.246;2023-12-20T00:51:55;11.25;;;3.05;;
40717;SDS011;26405;51.850;-2.246;2023-12-20T00:54:21;17.20;;;3.47;;
40717;SDS011;26405;51.850;-2.246;2023-12-20T00:56:46;14.75;;;3.13;;
40717;SDS011;26405;51.850;-2.246;2023-12-20T00:59:11;15.38;;;3.45;;
40717;SDS011;26405;51.850;-2.246;2023-12-20T01:01:37;11.48;;;3.10;;
40717;SDS011;26405;51.850;-2.246;2023-12-20T01:04:03;15.82;;;3.03;;
40717;SDS011;26405;51.850;-2.246;2023-12-20T01:06:28;16.10;;;3.35;;
40717;SDS011;26405;51.850;-2.246;2023-12-20T01:08:54;12.95;;;3.03;;
40717;SDS011;26405;51.850;-2.246;2023-12-20T01:11:19;10.80;;;2.92;;
40717;SDS011;26405;51.850;-2.246;2023-12-20T01:13:44;17.77;;;3.25;;
40717;SDS011;26405;51.850;-2.246;2023-12-20T01:16:12;16.65;;;3.25;;
40717;SDS011;26405;51.850;-2.246;2023-12-20T01:18:37;16.40;;;3.17;;
40717;SDS011;26405;51.850;-2.246;2023-12-20T01:21:04;14.40;;;3.75;;
40717;SDS011;26405;51.850;-2.246;2023-12-20T01:23:29;17.02;;;3.53;;
40717;SDS011;26405;51.850;-2.246;2023-12-20T01:25:54;15.50;;;3.28;;
40717;SDS011;26405;51.850;-2.246;2023-12-20T01:28:20;11.55;;;3.22;;
40717;SDS011;26405;51.850;-2.246;2023-12-20T01:30:45;16.42;;;3.60;;
40717;SDS011;26405;51.850;-2.246;2023-12-20T01:33:10;13.20;;;3.33;;
40717;SDS011;26405;51.850;-2.246;2023-12-20T01:35:35;15.50;;;3.15;;
40717;SDS011;26405;51.850;-2.246;2023-12-20T01:38:01;17.63;;;3.60;;
40717;SDS011;26405;51.850;-2.246;2023-12-20T01:40:26;17.10;;;3.42;;
40717;SDS011;26405;51.850;-2.246;2023-12-20T01:43:01;14.23;;;3.13;;
40717;SDS011;26405;51.850;-2.246;2023-12-20T01:45:27;14.60;;;3.30;;
40717;SDS011;26405;51.850;-2.246;2023-12-20T01:47:53;17.80;;;3.40;;
40717;SDS011;26405;51.850;-2.246;2023-12-20T01:50:19;15.93;;;3.10;;
40717;SDS011;26405;51.850;-2.246;2023-12-20T01:52:45;12.88;;;3.10;;
40717;SDS011;26405;51.850;-2.246;2023-12-20T01:55:10;14.15;;;3.03;;
40717;SDS011;26405;51.850;-2.246;2023-12-20T01:57:40;12.90;;;2.83;;
40717;SDS011;26405;51.850;-2.246;2023-12-20T02:00:06;18.77;;;3.13;;
40717;SDS011;26405;51.850;-2.246;2023-12-20T02:02:31;15.65;;;3.17;;
40717;SDS011;26405;51.850;-2.246;2023-12-20T02:04:56;16.98;;;3.50;;
40717;SDS011;26405;51.850;-2.246;2023-12-20T02:07:22;13.60;;;3.33;;
40717;SDS011;26405;51.850;-2.246;2023-12-20T02:09:47;15.95;;;3.35;;
40717;SDS011;26405;51.850;-2.246;2023-12-20T02:12:13;15.75;;;3.13;;
40717;SDS011;26405;51.850;-2.246;2023-12-20T02:14:38;12.32;;;3.00;;
40717;SDS011;26405;51.850;-2.246;2023-12-20T02:17:03;13.82;;;3.35;;
40717;SDS011;26405;51.850;-2.246;2023-12-20T02:19:29;14.30;;;3.25;;
40717;SDS011;26405;51.850;-2.246;2023-12-20T02:22:09;14.75;;;3.30;;
40717;SDS011;26405;51.850;-2.246;2023-12-20T02:24:35;18.45;;;3.67;;
40717;SDS011;26405;51.850;-2.246;2023-12-20T02:27:00;13.68;;;3.17;;
40717;SDS011;26405;51.850;-2.246;2023-12-20T02:29:26;15.57;;;3.58;;
40717;SDS011;26405;51.850;-2.246;2023-12-20T02:31:51;12.35;;;2.95;;
40717;SDS011;26405;51.850;-2.246;2023-12-20T02:34:16;16.63;;;3.83;;
40717;SDS011;26405;51.850;-2.246;2023-12-20T02:36:42;14.70;;;3.63;;
40717;SDS011;26405;51.850;-2.246;2023-12-20T02:39:07;12.60;;;3.15;;
40717;SDS011;26405;51.850;-2.246;2023-12-20T02:41:33;19.92;;;3.50;;
40717;SDS011;26405;51.850;-2.246;2023-12-20T02:43:58;15.48;;;3.95;;
40717;SDS011;26405;51.850;-2.246;2023-12-20T02:46:23;14.25;;;3.33;;
40717;SDS011;26405;51.850;-2.246;2023-12-20T02:48:49;18.00;;;3.22;;
40717;SDS011;26405;51.850;-2.246;2023-12-20T02:51:14;15.80;;;3.53;;
40717;SDS011;26405;51.850;-2.246;2023-12-20T02:53:39;13.70;;;3.58;;
40717;SDS011;26405;51.850;-2.246;2023-12-20T02:56:05;14.90;;;3.33;;
40717;SDS011;26405;51.850;-2.246;2023-12-20T02:58:30;17.05;;;3.35;;
40717;SDS011;26405;51.850;-2.246;2023-12-20T03:00:55;13.02;;;2.88;;
40717;SDS011;26405;51.850;-2.246;2023-12-20T03:03:20;17.75;;;3.60;;
40717;SDS011;26405;51.850;-2.246;2023-12-20T03:05:46;12.13;;;2.72;;
40717;SDS011;26405;51.850;-2.246;2023-12-20T03:08:11;12.50;;;3.17;;
40717;SDS011;26405;51.850;-2.246;2023-12-20T03:10:37;16.50;;;3.42;;
40717;SDS011;26405;51.850;-2.246;2023-12-20T03:13:02;15.77;;;3.40;;
40717;SDS011;26405;51.850;-2.246;2023-12-20T03:15:27;14.98;;;3.45;;
40717;SDS011;26405;51.850;-2.246;2023-12-20T03:17:52;16.42;;;3.13;;
40717;SDS011;26405;51.850;-2.246;2023-12-20T03:20:18;17.38;;;3.50;;
40717;SDS011;26405;51.850;-2.246;2023-12-20T03:22:43;12.65;;;3.03;;
40717;SDS011;26405;51.850;-2.246;2023-12-20T03:25:08;12.25;;;3.10;;
40717;SDS011;26405;51.850;-2.246;2023-12-20T03:27:34;16.60;;;3.60;;
40717;SDS011;26405;51.850;-2.246;2023-12-20T03:29:59;13.32;;;3.67;;
40717;SDS011;26405;51.850;-2.246;2023-12-20T03:32:24;14.25;;;3.22;;
40717;SDS011;26405;51.850;-2.246;2023-12-20T03:34:49;13.80;;;2.83;;
40717;SDS011;26405;51.850;-2.246;2023-12-20T03:37:15;13.52;;;3.40;;
40717;SDS011;26405;51.850;-2.246;2023-12-20T03:39:40;14.45;;;3.08;;
40717;SDS011;26405;51.850;-2.246;2023-12-20T03:42:05;18.38;;;3.38;;
40717;SDS011;26405;51.850;-2.246;2023-12-20T03:44:31;17.58;;;3.58;;
40717;SDS011;26405;51.850;-2.246;2023-12-20T03:46:56;15.15;;;3.70;;
40717;SDS011;26405;51.850;-2.246;2023-12-20T03:49:21;15.45;;;3.33;;
40717;SDS011;26405;51.850;-2.246;2023-12-20T03:51:47;16.95;;;3.13;;
40717;SDS011;26405;51.850;-2.246;2023-12-20T03:54:12;19.25;;;3.50;;
40717;SDS011;26405;51.850;-2.246;2023-12-20T03:56:37;16.67;;;3.60;;
40717;SDS011;26405;51.850;-2.246;2023-12-20T03:59:02;15.07;;;3.65;;
40717;SDS011;26405;51.850;-2.246;2023-12-20T04:01:28;17.15;;;3.63;;
40717;SDS011;26405;51.850;-2.246;2023-12-20T04:03:53;13.27;;;3.20;;
40717;SDS011;26405;51.850;-2.246;2023-12-20T04:06:18;12.98;;;3.10;;
40717;SDS011;26405;51.850;-2.246;2023-12-20T04:08:44;14.32;;;3.25;;
40717;SDS011;26405;51.850;-2.246;2023-12-20T04:11:09;14.82;;;3.28;;
40717;SDS011;26405;51.850;-2.246;2023-12-20T04:13:34;18.23;;;3.83;;
40717;SDS011;26405;51.850;-2.246;2023-12-20T04:15:59;13.15;;;3.20;;
40717;SDS011;26405;51.850;-2.246;2023-12-20T04:18:24;15.38;;;3.47;;
40717;SDS011;26405;51.850;-2.246;2023-12-20T04:20:50;14.88;;;3.45;;
40717;SDS011;26405;51.850;-2.246;2023-12-20T04:23:16;15.73;;;3.37;;
40717;SDS011;26405;51.850;-2.246;2023-12-20T04:25:41;20.83;;;3.53;;
40717;SDS011;26405;51.850;-2.246;2023-12-20T04:28:07;15.70;;;3.42;;
40717;SDS011;26405;51.850;-2.246;2023-12-20T04:30:32;14.20;;;3.40;;
40717;SDS011;26405;51.850;-2.246;2023-12-20T04:32:57;15.45;;;3.47;;
40717;SDS011;26405;51.850;-2.246;2023-12-20T04:35:22;13.93;;;2.97;;
40717;SDS011;26405;51.850;-2.246;2023-12-20T04:37:48;16.83;;;3.38;;
40717;SDS011;26405;51.850;-2.246;2023-12-20T04:40:14;14.83;;;3.30;;
40717;SDS011;26405;51.850;-2.246;2023-12-20T04:42:40;13.13;;;3.05;;
40717;SDS011;26405;51.850;-2.246;2023-12-20T04:45:05;21.23;;;3.58;;
40717;SDS011;26405;51.850;-2.246;2023-12-20T04:47:30;16.55;;;4.00;;
40717;SDS011;26405;51.850;-2.246;2023-12-20T04:49:56;17.70;;;3.33;;
40717;SDS011;26405;51.850;-2.246;2023-12-20T04:52:21;14.88;;;3.80;;
40717;SDS011;26405;51.850;-2.246;2023-12-20T04:54:46;17.80;;;3.67;;
40717;SDS011;26405;51.850;-2.246;2023-12-20T04:57:12;16.08;;;3.58;;
40717;SDS011;26405;51.850;-2.246;2023-12-20T04:59:37;13.85;;;3.25;;
40717;SDS011;26405;51.850;-2.246;2023-12-20T05:02:02;14.02;;;3.40;;
40717;SDS011;26405;51.850;-2.246;2023-12-20T05:04:28;16.85;;;3.50;;
40717;SDS011;26405;51.850;-2.246;2023-12-20T05:06:53;16.67;;;3.63;;
40717;SDS011;26405;51.850;-2.246;2023-12-20T05:09:18;17.90;;;3.55;;
40717;SDS011;26405;51.850;-2.246;2023-12-20T05:11:43;22.98;;;3.78;;
40717;SDS011;26405;51.850;-2.246;2023-12-20T05:14:09;17.10;;;3.60;;
40717;SDS011;26405;51.850;-2.246;2023-12-20T05:16:34;13.15;;;3.33;;
40717;SDS011;26405;51.850;-2.246;2023-12-20T05:18:59;17.40;;;3.70;;
40717;SDS011;26405;51.850;-2.246;2023-12-20T05:21:27;11.90;;;3.20;;
40717;SDS011;26405;51.850;-2.246;2023-12-20T05:23:52;15.38;;;3.53;;
40717;SDS011;26405;51.850;-2.246;2023-12-20T05:26:17;20.13;;;4.05;;
40717;SDS011;26405;51.850;-2.246;2023-12-20T05:28:42;15.73;;;3.40;;
40717;SDS011;26405;51.850;-2.246;2023-12-20T05:31:08;17.27;;;3.60;;
40717;SDS011;26405;51.850;-2.246;2023-12-20T05:33:34;17.20;;;3.42;;
40717;SDS011;26405;51.850;-2.246;2023-12-20T05:35:59;12.52;;;3.30;;
40717;SDS011;26405;51.850;-2.246;2023-12-20T05:38:24;16.15;;;3.28;;
40717;SDS011;26405;51.850;-2.246;2023-12-20T05:40:49;13.98;;;3.38;;
40717;SDS011;26405;51.850;-2.246;2023-12-20T05:43:15;15.93;;;3.20;;
40717;SDS011;26405;51.850;-2.246;2023-12-20T05:45:40;12.93;;;3.10;;
40717;SDS011;26405;51.850;-2.246;2023-12-20T05:48:05;18.38;;;3.67;;
40717;SDS011;26405;51.850;-2.246;2023-12-20T05:50:31;12.48;;;3.13;;
40717;SDS011;26405;51.850;-2.246;2023-12-20T05:52:56;15.27;;;3.28;;
40717;SDS011;26405;51.850;-2.246;2023-12-20T05:55:27;11.98;;;3.10;;
40717;SDS011;26405;51.850;-2.246;2023-12-20T05:57:53;14.60;;;3.30;;
40717;SDS011;26405;51.850;-2.246;2023-12-20T06:00:18;14.43;;;3.10;;
40717;SDS011;26405;51.850;-2.246;2023-12-20T06:02:43;16.45;;;3.40;;
40717;SDS011;26405;51.850;-2.246;2023-12-20T06:05:09;12.55;;;2.88;;
40717;SDS011;26405;51.850;-2.246;2023-12-20T06:07:34;20.70;;;3.75;;
40717;SDS011;26405;51.850;-2.246;2023-12-20T06:09:59;13.90;;;3.20;;
40717;SDS011;26405;51.850;-2.246;2023-12-20T06:12:25;13.35;;;3.20;;
40717;SDS011;26405;51.850;-2.246;2023-12-20T06:14:51;10.02;;;2.88;;
40717;SDS011;26405;51.850;-2.246;2023-12-20T06:17:17;11.20;;;2.55;;
40717;SDS011;26405;51.850;-2.246;2023-12-20T06:19:42;13.23;;;3.13;;
40717;SDS011;26405;51.850;-2.246;2023-12-20T06:22:09;13.88;;;3.20;;
40717;SDS011;26405;51.850;-2.246;2023-12-20T06:24:35;14.02;;;3.00;;
40717;SDS011;26405;51.850;-2.246;2023-12-20T06:27:01;14.18;;;3.03;;
40717;SDS011;26405;51.850;-2.246;2023-12-20T06:29:26;12.18;;;3.30;;
40717;SDS011;26405;51.850;-2.246;2023-12-20T06:31:51;13.85;;;2.88;;
40717;SDS011;26405;51.850;-2.246;2023-12-20T06:34:16;13.88;;;2.90;;
40717;SDS011;26405;51.850;-2.246;2023-12-20T06:36:42;12.77;;;2.97;;
40717;SDS011;26405;51.850;-2.246;2023-12-20T06:39:07;13.95;;;2.90;;
40717;SDS011;26405;51.850;-2.246;2023-12-20T06:41:33;9.63;;;2.30;;
40717;SDS011;26405;51.850;-2.246;2023-12-20T06:43:59;9.85;;;2.50;;
40717;SDS011;26405;51.850;-2.246;2023-12-20T06:46:24;15.82;;;3.20;;
40717;SDS011;26405;51.850;-2.246;2023-12-20T06:48:50;11.32;;;2.50;;
40717;SDS011;26405;51.850;-2.246;2023-12-20T06:51:16;12.57;;;3.00;;
40717;SDS011;26405;51.850;-2.246;2023-12-20T06:53:41;14.50;;;2.70;;
40717;SDS011;26405;51.850;-2.246;2023-12-20T06:56:07;16.60;;;3.33;;
40717;SDS011;26405;51.850;-2.246;2023-12-20T06:58:32;12.35;;;2.80;;
40717;SDS011;26405;51.850;-2.246;2023-12-20T07:00:58;10.02;;;2.80;;
40717;SDS011;26405;51.850;-2.246;2023-12-20T07:03:29;12.82;;;2.83;;
40717;SDS011;26405;51.850;-2.246;2023-12-20T07:05:54;13.10;;;2.63;;
40717;SDS011;26405;51.850;-2.246;2023-12-20T07:08:20;9.77;;;2.67;;
40717;SDS011;26405;51.850;-2.246;2023-12-20T07:10:45;11.50;;;2.90;;
40717;SDS011;26405;51.850;-2.246;2023-12-20T07:13:10;11.15;;;2.78;;
40717;SDS011;26405;51.850;-2.246;2023-12-20T07:15:36;12.50;;;2.90;;
40717;SDS011;26405;51.850;-2.246;2023-12-20T07:18:02;7.85;;;2.55;;
40717;SDS011;26405;51.850;-2.246;2023-12-20T07:20:27;12.60;;;2.83;;
40717;SDS011;26405;51.850;-2.246;2023-12-20T07:22:53;9.45;;;2.60;;
40717;SDS011;26405;51.850;-2.246;2023-12-20T07:25:18;10.30;;;2.45;;
40717;SDS011;26405;51.850;-2.246;2023-12-20T07:27:45;11.88;;;2.72;;
40717;SDS011;26405;51.850;-2.246;2023-12-20T07:30:10;10.73;;;2.67;;
40717;SDS011;26405;51.850;-2.246;2023-12-20T07:32:35;11.27;;;2.60;;
40717;SDS011;26405;51.850;-2.246;2023-12-20T07:35:01;10.32;;;2.75;;
40717;SDS011;26405;51.850;-2.246;2023-12-20T07:37:27;10.60;;;2.97;;
40717;SDS011;26405;51.850;-2.246;2023-12-20T07:39:53;15.77;;;2.95;;
40717;SDS011;26405;51.850;-2.246;2023-12-20T07:42:18;9.05;;;2.50;;
40717;SDS011;26405;51.850;-2.246;2023-12-20T07:44:43;9.88;;;2.38;;
40717;SDS011;26405;51.850;-2.246;2023-12-20T07:47:08;11.75;;;2.80;;
40717;SDS011;26405;51.850;-2.246;2023-12-20T07:49:34;13.75;;;3.00;;
40717;SDS011;26405;51.850;-2.246;2023-12-20T07:51:59;11.00;;;3.10;;
40717;SDS011;26405;51.850;-2.246;2023-12-20T07:54:24;10.25;;;2.85;;
40717;SDS011;26405;51.850;-2.246;2023-12-20T07:56:50;12.40;;;2.92;;
40717;SDS011;26405;51.850;-2.246;2023-12-20T07:59:15;10.52;;;3.08;;
40717;SDS011;26405;51.850;-2.246;2023-12-20T08:01:40;8.15;;;2.30;;
40717;SDS011;26405;51.850;-2.246;2023-12-20T08:04:07;10.00;;;2.50;;
40717;SDS011;26405;51.850;-2.246;2023-12-20T08:06:32;10.38;;;3.20;;
40717;SDS011;26405;51.850;-2.246;2023-12-20T08:08:57;12.20;;;2.80;;
40717;SDS011;26405;51.850;-2.246;2023-12-20T08:11:23;9.95;;;2.90;;
40717;SDS011;26405;51.850;-2.246;2023-12-20T08:13:48;11.85;;;2.75;;
40717;SDS011;26405;51.850;-2.246;2023-12-20T08:16:13;11.65;;;2.80;;
40717;SDS011;26405;51.850;-2.246;2023-12-20T08:18:40;11.65;;;2.90;;
40717;SDS011;26405;51.850;-2.246;2023-12-20T08:21:08;11.50;;;2.83;;
40717;SDS011;26405;51.850;-2.246;2023-12-20T08:23:33;11.63;;;2.83;;
40717;SDS011;26405;51.850;-2.246;2023-12-20T08:26:03;14.50;;;3.70;;
40717;SDS011;26405;51.850;-2.246;2023-12-20T08:28:28;10.40;;;2.72;;
40717;SDS011;26405;51.850;-2.246;2023-12-20T08:30:53;11.50;;;2.90;;
40717;SDS011;26405;51.850;-2.246;2023-12-20T08:33:19;13.32;;;3.40;;
40717;SDS011;26405;51.850;-2.246;2023-12-20T08:35:44;10.43;;;2.80;;
40717;SDS011;26405;51.850;-2.246;2023-12-20T08:38:09;8.50;;;2.42;;
40717;SDS011;26405;51.850;-2.246;2023-12-20T08:40:34;9.02;;;2.88;;
40717;SDS011;26405;51.850;-2.246;2023-12-20T08:43:00;11.60;;;2.78;;
40717;SDS011;26405;51.850;-2.246;2023-12-20T08:45:25;12.07;;;2.80;;
40717;SDS011;26405;51.850;-2.246;2023-12-20T08:47:51;8.68;;;2.53;;
40717;SDS011;26405;51.850;-2.246;2023-12-20T08:50:16;10.77;;;2.60;;
40717;SDS011;26405;51.850;-2.246;2023-12-20T08:52:41;11.13;;;2.80;;
40717;SDS011;26405;51.850;-2.246;2023-12-20T08:55:07;12.70;;;2.75;;
40717;SDS011;26405;51.850;-2.246;2023-12-20T08:57:33;9.02;;;2.70;;
40717;SDS011;26405;51.850;-2.246;2023-12-20T08:59:58;12.75;;;2.53;;
40717;SDS011;26405;51.850;-2.246;2023-12-20T09:02:24;9.77;;;2.72;;
40717;SDS011;26405;51.850;-2.246;2023-12-20T09:04:49;12.38;;;3.63;;
40717;SDS011;26405;51.850;-2.246;2023-12-20T09:07:21;8.25;;;2.70;;
40717;SDS011;26405;51.850;-2.246;2023-12-20T09:09:47;10.00;;;2.47;;
40717;SDS011;26405;51.850;-2.246;2023-12-20T09:12:12;12.05;;;2.80;;
40717;SDS011;26405;51.850;-2.246;2023-12-20T09:14:38;11.35;;;2.92;;
40717;SDS011;26405;51.850;-2.246;2023-12-20T09:17:03;10.73;;;2.47;;
40717;SDS011;26405;51.850;-2.246;2023-12-20T09:19:28;10.93;;;2.65;;
40717;SDS011;26405;51.850;-2.246;2023-12-20T09:21:54;11.63;;;2.50;;
40717;SDS011;26405;51.850;-2.246;2023-12-20T09:24:19;10.00;;;2.53;;
40717;SDS011;26405;51.850;-2.246;2023-12-20T09:26:45;11.05;;;2.70;;
40717;SDS011;26405;51.850;-2.246;2023-12-20T09:29:10;7.85;;;2.58;;
40717;SDS011;26405;51.850;-2.246;2023-12-20T09:31:40;10.68;;;2.88;;
40717;SDS011;26405;51.850;-2.246;2023-12-20T09:34:05;12.43;;;2.97;;
40717;SDS011;26405;51.850;-2.246;2023-12-20T09:36:30;11.18;;;2.65;;
40717;SDS011;26405;51.850;-2.246;2023-12-20T09:39:00;11.18;;;2.67;;
40717;SDS011;26405;51.850;-2.246;2023-12-20T09:41:26;9.40;;;2.63;;
40717;SDS011;26405;51.850;-2.246;2023-12-20T09:43:52;9.30;;;2.38;;
40717;SDS011;26405;51.850;-2.246;2023-12-20T09:48:44;7.55;;;2.25;;
40717;SDS011;26405;51.850;-2.246;2023-12-20T09:51:09;11.98;;;2.78;;
40717;SDS011;26405;51.850;-2.246;2023-12-20T09:53:35;6.00;;;2.55;;
40717;SDS011;26405;51.850;-2.246;2023-12-20T09:56:01;10.35;;;2.88;;
40717;SDS011;26405;51.850;-2.246;2023-12-20T09:58:28;10.57;;;3.07;;
40717;SDS011;26405;51.850;-2.246;2023-12-20T10:00:53;8.90;;;2.90;;
40717;SDS011;26405;51.850;-2.246;2023-12-20T10:03:22;10.48;;;2.80;;
40717;SDS011;26405;51.850;-2.246;2023-12-20T10:05:49;10.45;;;3.20;;
40717;SDS011;26405;51.850;-2.246;2023-12-20T10:08:17;13.82;;;3.58;;
40717;SDS011;26405;51.850;-2.246;2023-12-20T10:10:42;15.13;;;3.53;;
40717;SDS011;26405;51.850;-2.246;2023-12-20T10:13:09;10.70;;;3.67;;
40717;SDS011;26405;51.850;-2.246;2023-12-20T10:15:34;9.32;;;3.00;;
40717;SDS011;26405;51.850;-2.246;2023-12-20T10:18:03;12.65;;;3.00;;
40717;SDS011;26405;51.850;-2.246;2023-12-20T10:20:29;13.35;;;2.80;;
40717;SDS011;26405;51.850;-2.246;2023-12-20T10:22:58;8.15;;;2.47;;
40717;SDS011;26405;51.850;-2.246;2023-12-20T10:25:24;10.68;;;2.65;;
40717;SDS011;26405;51.850;-2.246;2023-12-20T10:27:50;9.95;;;2.67;;
40717;SDS011;26405;51.850;-2.246;2023-12-20T10:30:15;7.95;;;2.30;;
40717;SDS011;26405;51.850;-2.246;2023-12-20T10:32:41;12.98;;;2.67;;
40717;SDS011;26405;51.850;-2.246;2023-12-20T10:35:06;12.95;;;3.00;;
40717;SDS011;26405;51.850;-2.246;2023-12-20T10:37:35;10.82;;;2.55;;
40717;SDS011;26405;51.850;-2.246;2023-12-20T10:40:00;9.35;;;2.40;;
40717;SDS011;26405;51.850;-2.246;2023-12-20T10:42:28;7.32;;;2.10;;
40717;SDS011;26405;51.850;-2.246;2023-12-20T10:44:54;6.80;;;2.20;;
40717;SDS011;26405;51.850;-2.246;2023-12-20T10:47:22;8.45;;;2.10;;
40717;SDS011;26405;51.850;-2.246;2023-12-20T10:49:49;9.00;;;2.20;;
40717;SDS011;26405;51.850;-2.246;2023-12-20T10:52:16;5.73;;;2.13;;
40717;SDS011;26405;51.850;-2.246;2023-12-20T10:54:41;6.30;;;2.10;;
40717;SDS011;26405;51.850;-2.246;2023-12-20T10:57:07;4.07;;;1.80;;
40717;SDS011;26405;51.850;-2.246;2023-12-20T10:59:38;5.15;;;2.10;;
40717;SDS011;26405;51.850;-2.246;2023-12-20T11:02:04;8.40;;;1.85;;
40717;SDS011;26405;51.850;-2.246;2023-12-20T11:04:41;4.88;;;2.00;;
40717;SDS011;26405;51.850;-2.246;2023-12-20T11:07:23;7.25;;;2.00;;
40717;SDS011;26405;51.850;-2.246;2023-12-20T11:09:58;6.43;;;2.25;;
40717;SDS011;26405;51.850;-2.246;2023-12-20T11:12:28;5.25;;;1.90;;
40717;SDS011;26405;51.850;-2.246;2023-12-20T11:14:57;7.93;;;2.40;;
40717;SDS011;26405;51.850;-2.246;2023-12-20T11:17:28;6.80;;;1.88;;
40717;SDS011;26405;51.850;-2.246;2023-12-20T11:22:21;5.80;;;2.28;;
40717;SDS011;26405;51.850;-2.246;2023-12-20T11:24:47;8.75;;;2.10;;
40717;SDS011;26405;51.850;-2.246;2023-12-20T11:27:13;5.95;;;1.70;;
40717;SDS011;26405;51.850;-2.246;2023-12-20T11:29:38;5.80;;;1.85;;
40717;SDS011;26405;51.850;-2.246;2023-12-20T11:32:50;3.92;;;1.63;;
40717;SDS011;26405;51.850;-2.246;2023-12-20T11:35:00;6.78;;;1.85;;
40717;SDS011;26405;51.850;-2.246;2023-12-20T11:37:32;6.38;;;1.80;;
40717;SDS011;26405;51.850;-2.246;2023-12-20T11:40:00;6.03;;;2.08;;
40717;SDS011;26405;51.850;-2.246;2023-12-20T11:42:26;3.00;;;1.50;;
40717;SDS011;26405;51.850;-2.246;2023-12-20T11:44:52;4.30;;;1.70;;
40717;SDS011;26405;51.850;-2.246;2023-12-20T11:47:18;5.00;;;2.00;;
40717;SDS011;26405;51.850;-2.246;2023-12-20T11:49:44;3.70;;;1.80;;
40717;SDS011;26405;51.850;-2.246;2023-12-20T11:52:11;4.05;;;2.20;;
40717;SDS011;26405;51.850;-2.246;2023-12-20T11:54:37;3.67;;;1.88;;
40717;SDS011;26405;51.850;-2.246;2023-12-20T11:57:02;5.78;;;1.95;;
40717;SDS011;26405;51.850;-2.246;2023-12-20T11:59:27;3.60;;;1.85;;
40717;SDS011;26405;51.850;-2.246;2023-12-20T12:01:53;5.38;;;2.20;;
40717;SDS011;26405;51.850;-2.246;2023-12-20T12:06:45;3.90;;;2.08;;
40717;SDS011;26405;51.850;-2.246;2023-12-20T12:09:11;2.53;;;1.80;;
40717;SDS011;26405;51.850;-2.246;2023-12-20T12:11:36;3.08;;;2.00;;
40717;SDS011;26405;51.850;-2.246;2023-12-20T12:14:02;4.82;;;1.60;;
40717;SDS011;26405;51.850;-2.246;2023-12-20T12:16:27;5.05;;;1.88;;
40717;SDS011;26405;51.850;-2.246;2023-12-20T12:18:56;3.95;;;2.00;;
40717;SDS011;26405;51.850;-2.246;2023-12-20T12:21:22;2.95;;;1.80;;
40717;SDS011;26405;51.850;-2.246;2023-12-20T12:23:47;5.60;;;1.50;;
40717;SDS011;26405;51.850;-2.246;2023-12-20T12:26:13;3.30;;;1.67;;
40717;SDS011;26405;51.850;-2.246;2023-12-20T12:28:41;3.90;;;1.70;;
40717;SDS011;26405;51.850;-2.246;2023-12-20T12:31:07;4.53;;;2.10;;
40717;SDS011;26405;51.850;-2.246;2023-12-20T12:33:33;3.42;;;1.88;;
40717;SDS011;26405;51.850;-2.246;2023-12-20T12:35:58;3.17;;;1.85;;
40717;SDS011;26405;51.850;-2.246;2023-12-20T12:38:24;1.70;;;1.60;;
40717;SDS011;26405;51.850;-2.246;2023-12-20T12:40:50;3.53;;;1.73;;
40717;SDS011;26405;51.850;-2.246;2023-12-20T12:43:15;5.18;;;2.03;;
40717;SDS011;26405;51.850;-2.246;2023-12-20T12:45:41;2.85;;;1.60;;
40717;SDS011;26405;51.850;-2.246;2023-12-20T12:48:06;4.13;;;1.92;;
40717;SDS011;26405;51.850;-2.246;2023-12-20T12:50:32;4.35;;;1.95;;
40717;SDS011;26405;51.850;-2.246;2023-12-20T12:52:57;4.13;;;2.03;;
40717;SDS011;26405;51.850;-2.246;2023-12-20T12:55:22;8.30;;;2.10;;
40717;SDS011;26405;51.850;-2.246;2023-12-20T12:57:47;4.18;;;2.15;;
40717;SDS011;26405;51.850;-2.246;2023-12-20T13:00:13;4.55;;;1.80;;
40717;SDS011;26405;51.850;-2.246;2023-12-20T13:02:39;5.15;;;2.20;;
40717;SDS011;26405;51.850;-2.246;2023-12-20T13:05:06;4.70;;;2.00;;
40717;SDS011;26405;51.850;-2.246;2023-12-20T13:07:33;6.32;;;2.10;;
40717;SDS011;26405;51.850;-2.246;2023-12-20T13:09:58;5.85;;;2.13;;
40717;SDS011;26405;51.850;-2.246;2023-12-20T13:12:23;7.10;;;2.15;;
40717;SDS011;26405;51.850;-2.246;2023-12-20T13:14:48;8.52;;;1.90;;
40717;SDS011;26405;51.850;-2.246;2023-12-20T13:17:14;5.00;;;2.05;;
40717;SDS011;26405;51.850;-2.246;2023-12-20T13:19:40;4.67;;;1.80;;
40717;SDS011;26405;51.850;-2.246;2023-12-20T13:22:05;5.72;;;1.95;;
40717;SDS011;26405;51.850;-2.246;2023-12-20T13:24:31;5.57;;;1.90;;
40717;SDS011;26405;51.850;-2.246;2023-12-20T13:26:57;7.97;;;2.28;;
40717;SDS011;26405;51.850;-2.246;2023-12-20T13:29:22;3.28;;;2.10;;
40717;SDS011;26405;51.850;-2.246;2023-12-20T13:31:48;7.50;;;2.30;;
40717;SDS011;26405;51.850;-2.246;2023-12-20T13:34:14;4.03;;;2.13;;
40717;SDS011;26405;51.850;-2.246;2023-12-20T13:36:39;3.50;;;2.00;;
40717;SDS011;26405;51.850;-2.246;2023-12-20T13:39:04;4.00;;;2.10;;
40717;SDS011;26405;51.850;-2.246;2023-12-20T13:41:30;5.57;;;2.00;;
40717;SDS011;26405;51.850;-2.246;2023-12-20T13:43:55;8.68;;;2.25;;
40717;SDS011;26405;51.850;-2.246;2023-12-20T13:46:21;5.28;;;1.83;;
40717;SDS011;26405;51.850;-2.246;2023-12-20T13:48:46;3.95;;;1.83;;
40717;SDS011;26405;51.850;-2.246;2023-12-20T13:51:11;5.93;;;2.08;;
40717;SDS011;26405;51.850;-2.246;2023-12-20T13:53:37;6.10;;;1.77;;
40717;SDS011;26405;51.850;-2.246;2023-12-20T13:56:03;3.92;;;1.70;;
40717;SDS011;26405;51.850;-2.246;2023-12-20T13:58:29;5.95;;;1.98;;
40717;SDS011;26405;51.850;-2.246;2023-12-20T14:00:54;9.20;;;2.10;;
40717;SDS011;26405;51.850;-2.246;2023-12-20T14:03:19;3.47;;;1.50;;
40717;SDS011;26405;51.850;-2.246;2023-12-20T14:05:45;5.20;;;1.90;;
40717;SDS011;26405;51.850;-2.246;2023-12-20T14:08:10;3.45;;;1.77;;
40717;SDS011;26405;51.850;-2.246;2023-12-20T14:10:35;2.42;;;1.80;;
40717;SDS011;26405;51.850;-2.246;2023-12-20T14:13:01;3.88;;;1.70;;
40717;SDS011;26405;51.850;-2.246;2023-12-20T14:15:26;3.05;;;1.70;;
40717;SDS011;26405;51.850;-2.246;2023-12-20T14:17:51;3.85;;;2.00;;
40717;SDS011;26405;51.850;-2.246;2023-12-20T14:20:17;3.78;;;1.67;;
40717;SDS011;26405;51.850;-2.246;2023-12-20T14:22:43;4.05;;;1.70;;
40717;SDS011;26405;51.850;-2.246;2023-12-20T14:25:12;7.97;;;1.70;;
40717;SDS011;26405;51.850;-2.246;2023-12-20T14:27:38;2.70;;;1.73;;